createdAt,value
2018-07-25T00:00:31.885Z,101033.77
2018-07-25T00:03:00.099Z,101032.27
2018-07-25T00:05:28.306Z,101031.23
2018-07-25T00:07:56.552Z,101035.00
2018-07-25T00:10:28.960Z,101036.94
2018-07-25T00:12:57.209Z,101034.16
2018-07-25T00:15:25.400Z,101032.77
2018-07-25T00:17:53.603Z,101039.64
2018-07-25T00:20:21.850Z,101030.98
2018-07-25T00:22:50.098Z,101032.66
2018-07-25T00:25:18.314Z,101034.77
2018-07-25T00:27:46.564Z,101037.19
2018-07-25T00:30:14.771Z,101035.77
2018-07-25T00:32:42.955Z,101037.80
2018-07-25T00:35:11.223Z,101031.11
2018-07-25T00:37:39.464Z,101034.30
2018-07-25T00:40:07.692Z,101040.02
2018-07-25T00:42:35.998Z,101041.67
2018-07-25T00:45:04.220Z,101047.31
2018-07-25T00:47:32.440Z,101050.06
2018-07-25T00:50:24.124Z,101043.72
2018-07-25T00:52:52.304Z,101046.84
2018-07-25T00:55:20.534Z,101043.90
2018-07-25T00:57:48.763Z,101049.28
2018-07-25T01:00:17.931Z,101049.95
2018-07-25T01:02:46.773Z,101047.94
2018-07-25T01:05:15.159Z,101045.50
2018-07-25T01:07:43.351Z,101043.11
2018-07-25T01:10:11.565Z,101049.83
2018-07-25T01:12:39.785Z,101048.78
2018-07-25T01:15:08.975Z,101050.91
2018-07-25T01:17:37.305Z,101045.80
2018-07-25T01:20:05.692Z,101046.36
2018-07-25T01:22:33.923Z,101038.36
2018-07-25T01:25:02.554Z,101039.00
2018-07-25T01:27:30.771Z,101046.14
2018-07-25T01:29:58.972Z,101043.94
2018-07-25T01:32:27.198Z,101041.11
2018-07-25T01:34:55.546Z,101044.13
2018-07-25T01:37:23.753Z,101048.79
2018-07-25T01:39:51.975Z,101047.52
2018-07-25T01:42:20.220Z,101045.13
2018-07-25T01:50:03.339Z,101041.52
2018-07-25T01:52:32.670Z,101040.95
2018-07-25T01:55:01.969Z,101047.35
2018-07-25T01:57:30.206Z,101051.47
2018-07-25T01:59:58.436Z,101053.83
2018-07-25T02:02:26.667Z,101049.63
2018-07-25T02:04:54.912Z,101052.81
2018-07-25T02:07:24.276Z,101048.61
2018-07-25T02:09:52.528Z,101048.48
2018-07-25T02:12:21.287Z,101054.93
2018-07-25T02:14:49.550Z,101059.84
2018-07-25T02:17:17.955Z,101053.87
2018-07-25T02:19:46.180Z,101059.05
2018-07-25T02:22:14.494Z,101057.28
2018-07-25T02:24:43.238Z,101057.13
2018-07-25T02:27:11.492Z,101062.04
2018-07-25T02:29:39.754Z,101066.55
2018-07-25T02:32:07.983Z,101066.32
2018-07-25T02:34:36.525Z,101063.34
2018-07-25T02:37:04.915Z,101058.31
2018-07-25T02:39:33.157Z,101061.80
2018-07-25T02:42:01.435Z,101065.62
2018-07-25T02:44:29.728Z,101063.57
2018-07-25T02:46:57.941Z,101067.11
2018-07-25T02:49:26.200Z,101060.44
2018-07-25T02:51:54.409Z,101065.18
2018-07-25T02:54:22.649Z,101059.97
2018-07-25T02:56:50.919Z,101060.70
2018-07-25T02:59:31.244Z,101060.78
2018-07-25T03:01:59.469Z,101065.45
2018-07-25T03:04:27.715Z,101064.08
2018-07-25T03:06:55.967Z,101066.83
2018-07-25T03:09:24.171Z,101069.42
2018-07-25T03:11:52.391Z,101075.67
2018-07-25T03:14:20.615Z,101066.50
2018-07-25T03:16:48.848Z,101065.55
2018-07-25T03:19:17.250Z,101070.66
2018-07-25T03:21:45.555Z,101075.43
2018-07-25T03:24:13.741Z,101073.75
2018-07-25T03:26:41.949Z,101073.61
2018-07-25T03:29:10.211Z,101074.81
2018-07-25T03:31:38.538Z,101073.77
2018-07-25T03:34:06.660Z,101075.14
2018-07-25T03:36:34.911Z,101082.73
2018-07-25T03:39:03.116Z,101077.28
2018-07-25T03:41:31.304Z,101076.27
2018-07-25T03:43:59.558Z,101075.00
2018-07-25T03:46:27.763Z,101080.41
2018-07-25T03:48:55.962Z,101080.46
2018-07-25T03:51:24.221Z,101082.83
2018-07-25T03:53:52.417Z,101085.42
2018-07-25T03:56:21.854Z,101084.34
2018-07-25T03:58:52.727Z,101077.72
2018-07-25T04:01:20.987Z,101078.39
2018-07-25T04:03:49.218Z,101079.14
2018-07-25T04:06:17.537Z,101083.76
2018-07-25T04:08:45.809Z,101080.44
2018-07-25T04:11:14.045Z,101080.25
2018-07-25T04:13:42.276Z,101088.50
2018-07-25T04:16:10.585Z,101090.81
2018-07-25T04:18:38.792Z,101085.88
2018-07-25T04:21:07.014Z,101087.47
2018-07-25T04:23:35.315Z,101091.89
2018-07-25T04:26:03.574Z,101083.20
2018-07-25T04:28:31.774Z,101085.55
2018-07-25T04:30:59.993Z,101086.58
2018-07-25T04:33:28.892Z,101087.73
2018-07-25T04:35:57.141Z,101090.81
2018-07-25T04:38:25.621Z,101095.56
2018-07-25T04:40:54.551Z,101089.62
2018-07-25T04:43:23.268Z,101090.39
2018-07-25T04:45:52.660Z,101097.73
2018-07-25T04:48:20.891Z,101098.20
2018-07-25T04:50:49.098Z,101093.44
2018-07-25T04:53:17.390Z,101095.22
2018-07-25T04:55:45.613Z,101093.12
2018-07-25T04:58:13.871Z,101095.20
2018-07-25T05:00:42.141Z,101100.01
2018-07-25T05:03:10.359Z,101103.38
2018-07-25T05:05:39.514Z,101099.91
2018-07-25T05:08:07.785Z,101102.73
2018-07-25T05:10:36.039Z,101107.71
2018-07-25T05:13:04.271Z,101113.93
2018-07-25T05:15:33.193Z,101111.45
2018-07-25T05:18:01.540Z,101115.34
2018-07-25T05:20:29.764Z,101122.88
2018-07-25T05:22:58.184Z,101121.27
2018-07-25T05:25:26.400Z,101124.34
2018-07-25T05:27:54.619Z,101124.97
2018-07-25T05:30:23.645Z,101122.97
2018-07-25T05:32:52.820Z,101120.73
2018-07-25T05:35:21.063Z,101121.72
2018-07-25T05:38:11.198Z,101124.63
2018-07-25T05:40:43.721Z,101124.81
2018-07-25T05:43:13.404Z,101128.36
2018-07-25T05:45:42.236Z,101125.97
2018-07-25T05:48:10.511Z,101126.70
2018-07-25T05:50:38.881Z,101131.78
2018-07-25T05:53:07.192Z,101133.27
2018-07-25T05:55:36.265Z,101135.03
2018-07-25T05:58:04.585Z,101135.19
2018-07-25T06:00:32.804Z,101135.61
2018-07-25T06:03:01.210Z,101130.58
2018-07-25T06:05:29.446Z,101139.31
2018-07-25T06:07:57.796Z,101142.33
2018-07-25T06:10:26.958Z,101146.63
2018-07-25T06:12:56.058Z,101145.15
2018-07-25T06:15:27.644Z,101145.52
2018-07-25T06:18:03.799Z,101150.27
2018-07-25T06:21:11.861Z,101153.16
2018-07-25T06:23:44.105Z,101154.38
2018-07-25T06:26:21.522Z,101152.45
2018-07-25T06:28:51.260Z,101153.33
2018-07-25T06:31:24.994Z,101153.98
2018-07-25T06:33:56.268Z,101153.81
2018-07-25T06:36:24.496Z,101158.17
2018-07-25T06:38:54.531Z,101161.98
2018-07-25T06:41:22.883Z,101160.60
2018-07-25T06:43:51.158Z,101164.63
2018-07-25T06:46:34.505Z,101157.03
2018-07-25T06:49:04.410Z,101160.84
2018-07-25T06:51:40.343Z,101158.79
2018-07-25T06:54:08.554Z,101156.86
2018-07-25T06:56:36.761Z,101152.64
2018-07-25T06:59:04.997Z,101152.50
2018-07-25T07:01:33.315Z,101161.20
2018-07-25T07:04:01.547Z,101159.99
2018-07-25T07:06:29.868Z,101160.00
2018-07-25T07:08:58.119Z,101165.17
2018-07-25T07:11:26.344Z,101165.09
2018-07-25T07:13:54.634Z,101169.78
2018-07-25T07:16:23.830Z,101166.47
2018-07-25T07:18:52.046Z,101161.84
2018-07-25T07:21:21.567Z,101164.27
2018-07-25T07:23:50.065Z,101165.20
2018-07-25T07:26:18.302Z,101158.09
2018-07-25T07:28:46.627Z,101158.19
2018-07-25T07:31:14.923Z,101169.69
2018-07-25T07:33:43.231Z,101163.11
2018-07-25T07:36:12.749Z,101164.97
2018-07-25T07:38:40.927Z,101167.41
2018-07-25T07:41:15.100Z,101163.36
2018-07-25T07:43:45.090Z,101169.01
2018-07-25T07:46:14.913Z,101166.55
2018-07-25T07:48:45.047Z,101162.48
2018-07-25T07:51:13.788Z,101165.09
2018-07-25T07:53:42.023Z,101170.59
2018-07-25T07:56:10.232Z,101167.16
2018-07-25T07:58:38.764Z,101169.33
2018-07-25T08:01:12.332Z,101170.84
2018-07-25T08:03:40.835Z,101173.60
2018-07-25T08:06:10.788Z,101171.39
2018-07-25T08:08:39.100Z,101175.44
2018-07-25T08:11:07.503Z,101168.95
2018-07-25T08:13:36.963Z,101172.47
2018-07-25T08:16:05.198Z,101170.04
2018-07-25T08:18:33.462Z,101166.03
2018-07-25T08:21:01.747Z,101167.17
2018-07-25T08:23:29.943Z,101167.41
2018-07-25T08:25:58.213Z,101169.29
2018-07-25T08:28:26.439Z,101169.77
2018-07-25T08:30:54.635Z,101165.55
2018-07-25T08:33:22.878Z,101169.03
2018-07-25T08:35:51.108Z,101175.66
2018-07-25T08:38:29.475Z,101168.05
2018-07-25T08:40:57.660Z,101170.53
2018-07-25T08:43:25.894Z,101175.13
2018-07-25T08:45:54.155Z,101172.55
2018-07-25T08:48:22.378Z,101170.16
2018-07-25T08:50:50.747Z,101173.89
2018-07-25T08:53:19.085Z,101167.70
2018-07-25T08:55:47.354Z,101170.47
2018-07-25T08:58:15.623Z,101168.13
2018-07-25T09:00:44.662Z,101162.89
2018-07-25T09:03:12.948Z,101167.81
2018-07-25T09:05:41.651Z,101165.76
2018-07-25T09:08:10.069Z,101174.33
2018-07-25T09:10:38.371Z,101166.90
2018-07-25T09:13:06.861Z,101164.92
2018-07-25T09:15:35.202Z,101166.44
2018-07-25T09:18:03.848Z,101164.38
2018-07-25T09:20:32.145Z,101160.53
2018-07-25T09:23:00.406Z,101164.94
2018-07-25T09:25:28.695Z,101168.03
2018-07-25T09:27:57.192Z,101167.48
2018-07-25T09:30:25.612Z,101161.83
2018-07-25T09:32:54.169Z,101170.32
2018-07-25T09:35:22.497Z,101166.50
2018-07-25T09:37:50.749Z,101162.61
2018-07-25T09:40:18.980Z,101158.24
2018-07-25T09:42:47.228Z,101166.31
2018-07-25T09:45:15.765Z,101155.01
2018-07-25T09:47:43.983Z,101161.80
2018-07-25T09:50:17.944Z,101163.53
2018-07-25T09:52:46.261Z,101154.69
2018-07-25T09:55:15.359Z,101156.92
2018-07-25T09:57:43.730Z,101155.80
2018-07-25T10:00:13.278Z,101158.31
2018-07-25T10:02:41.732Z,101158.71
2018-07-25T10:05:10.617Z,101153.55
2018-07-25T10:07:38.957Z,101150.14
2018-07-25T10:10:07.360Z,101145.68
2018-07-25T10:12:35.600Z,101144.73
2018-07-25T10:15:03.959Z,101149.77
2018-07-25T10:17:32.409Z,101154.90
2018-07-25T10:20:00.694Z,101143.00
2018-07-25T10:22:28.967Z,101147.66
2018-07-25T10:24:57.401Z,101146.63
2018-07-25T10:27:25.722Z,101143.86
2018-07-25T10:29:53.855Z,101135.91
2018-07-25T10:32:22.140Z,101145.01
2018-07-25T10:34:50.351Z,101137.14
2018-07-25T10:37:18.620Z,101136.42
2018-07-25T10:39:46.864Z,101133.36
2018-07-25T10:42:15.105Z,101135.91
2018-07-25T10:44:44.702Z,101136.93
2018-07-25T10:47:13.045Z,101141.45
2018-07-25T10:49:41.337Z,101136.92
2018-07-25T10:52:09.535Z,101136.60
2018-07-25T10:54:37.759Z,101135.54
2018-07-25T10:57:06.012Z,101137.86
2018-07-25T10:59:34.244Z,101128.13
2018-07-25T11:02:02.552Z,101128.81
2018-07-25T11:04:31.636Z,101131.12
2018-07-25T11:06:59.848Z,101133.66
2018-07-25T11:09:28.072Z,101126.87
2018-07-25T11:11:56.377Z,101123.27
2018-07-25T11:14:24.631Z,101137.50
2018-07-25T11:16:53.885Z,101126.97
2018-07-25T11:19:22.303Z,101129.31
2018-07-25T11:21:51.523Z,101123.44
2018-07-25T11:24:19.751Z,101133.05
2018-07-25T11:26:49.228Z,101124.06
2018-07-25T11:29:18.568Z,101127.16
2018-07-25T11:31:46.815Z,101134.40
2018-07-25T11:34:17.759Z,101132.77
2018-07-25T11:36:45.979Z,101125.98
2018-07-25T11:39:14.242Z,101124.48
2018-07-25T11:41:42.604Z,101126.13
2018-07-25T11:44:10.847Z,101124.16
2018-07-25T11:46:39.047Z,101119.55
2018-07-25T11:49:07.400Z,101123.73
2018-07-25T11:51:35.734Z,101104.97
2018-07-25T11:54:03.995Z,101108.39
2018-07-25T11:56:32.358Z,101113.35
2018-07-25T11:59:00.593Z,101113.11
2018-07-25T12:01:28.851Z,101115.20
2018-07-25T12:04:11.703Z,101101.97
2018-07-25T12:06:49.168Z,101111.98
2018-07-25T12:09:23.982Z,101107.48
2018-07-25T12:11:52.291Z,101103.10
2018-07-25T12:14:20.519Z,101100.81
2018-07-25T12:16:52.537Z,101099.27
2018-07-25T12:19:21.415Z,101101.08
2018-07-25T12:21:49.770Z,101092.75
2018-07-25T12:24:18.080Z,101090.58
2018-07-25T12:26:46.311Z,101087.20
2018-07-25T12:29:15.122Z,101081.63
2018-07-25T12:31:43.865Z,101093.61
2018-07-25T12:34:12.076Z,101089.70
2018-07-25T12:36:40.349Z,101087.64
2018-07-25T12:49:25.823Z,101086.05
2018-07-25T12:51:54.164Z,101069.30
2018-07-25T12:54:22.401Z,101065.36
2018-07-25T12:56:50.679Z,101062.72
2018-07-25T12:59:18.900Z,101059.75
2018-07-25T13:01:47.186Z,101067.36
2018-07-25T13:04:15.437Z,101062.18
2018-07-25T13:06:43.696Z,101063.56
2018-07-25T13:09:12.540Z,101063.27
2018-07-25T13:11:40.987Z,101057.69
2018-07-25T13:14:09.341Z,101057.44
2018-07-25T13:16:38.008Z,101062.72
2018-07-25T13:19:06.325Z,101058.34
2018-07-25T13:21:34.916Z,101051.13
2018-07-25T13:24:03.139Z,101058.08
2018-07-25T13:26:31.439Z,101050.90
2018-07-25T13:29:00.546Z,101050.36
2018-07-25T13:31:28.793Z,101046.36
2018-07-25T13:33:57.103Z,101045.78
2018-07-25T13:36:25.461Z,101046.73
2018-07-25T13:38:53.767Z,101049.38
2018-07-25T13:41:22.032Z,101045.95
2018-07-25T13:43:50.278Z,101035.73
2018-07-25T13:46:18.739Z,101038.64
2018-07-25T13:48:46.820Z,101028.89
2018-07-25T13:51:15.069Z,101028.89
2018-07-25T13:53:43.299Z,101026.21
2018-07-25T13:56:11.592Z,101014.69
2018-07-25T13:58:39.833Z,101013.46
2018-07-25T14:01:08.061Z,101015.80
2018-07-25T14:03:36.336Z,101014.25
2018-07-25T14:06:04.610Z,101014.92
2018-07-25T14:08:32.868Z,101020.54
2018-07-25T14:11:01.165Z,101015.30
2018-07-25T14:13:29.534Z,101012.25
2018-07-25T14:15:57.801Z,101018.80
2018-07-25T14:18:26.084Z,101012.66
2018-07-25T14:20:54.335Z,101008.77
2018-07-25T14:23:22.574Z,101005.96
2018-07-25T14:25:50.935Z,101004.00
2018-07-25T14:28:19.160Z,101011.42
2018-07-25T14:30:47.530Z,101013.22
2018-07-25T14:33:15.964Z,101005.19
2018-07-25T14:35:44.174Z,101006.78
2018-07-25T14:38:12.409Z,101003.86
2018-07-25T14:40:40.954Z,101007.42
2018-07-25T14:43:09.196Z,101002.09
2018-07-25T14:45:37.465Z,100998.92
2018-07-25T14:48:05.835Z,100998.72
2018-07-25T14:50:34.042Z,100996.83
2018-07-25T14:53:02.276Z,100996.92
2018-07-25T14:55:30.517Z,100998.86
2018-07-25T14:57:58.763Z,101001.50
2018-07-25T15:00:27.159Z,101004.61
2018-07-25T15:02:55.521Z,101004.56
2018-07-25T15:05:23.789Z,101004.23
2018-07-25T15:07:52.051Z,101006.59
2018-07-25T15:10:20.319Z,101011.55
2018-07-25T15:12:53.973Z,101004.95
2018-07-25T15:15:22.172Z,101005.23
2018-07-25T15:17:50.434Z,101007.53
2018-07-25T15:20:18.652Z,101015.26
2018-07-25T15:22:46.935Z,101013.53
2018-07-25T15:25:15.105Z,101014.63
2018-07-25T15:27:43.393Z,101015.66
2018-07-25T15:30:12.321Z,101021.05
2018-07-25T15:32:40.997Z,101022.45
2018-07-25T15:35:09.921Z,101025.50
2018-07-25T15:37:38.743Z,101018.71
2018-07-25T15:40:07.664Z,101027.50
2018-07-25T15:42:35.918Z,101028.23
2018-07-25T15:45:04.464Z,101037.11
2018-07-25T15:47:32.752Z,101036.34
2018-07-25T15:50:01.003Z,101035.97
2018-07-25T15:52:29.255Z,101039.09
2018-07-25T15:54:57.522Z,101042.77
2018-07-25T15:57:25.772Z,101042.81
2018-07-25T15:59:54.016Z,101064.19
2018-07-25T16:02:22.240Z,101075.86
2018-07-25T16:04:50.468Z,101086.81
2018-07-25T16:07:18.701Z,101085.65
2018-07-25T16:09:47.014Z,101093.24
2018-07-25T16:12:15.278Z,101075.05
2018-07-25T16:14:43.575Z,101088.98
2018-07-25T16:17:11.890Z,101072.77
2018-07-25T16:19:40.077Z,101076.80
2018-07-25T16:22:08.331Z,101065.89
2018-07-25T16:24:36.567Z,101085.76
2018-07-25T16:27:04.860Z,101080.36
2018-07-25T16:29:33.102Z,101101.80
2018-07-25T16:32:01.357Z,101091.54
2018-07-25T16:34:29.685Z,101098.95
2018-07-25T16:36:57.969Z,101097.79
2018-07-25T16:39:26.304Z,101098.31
2018-07-25T16:41:54.614Z,101097.30
2018-07-25T16:44:22.835Z,101102.66
2018-07-25T16:46:51.077Z,101101.33
2018-07-25T16:49:19.480Z,101104.09
2018-07-25T16:51:47.728Z,101105.87
2018-07-25T16:54:15.976Z,101099.22
2018-07-25T16:56:44.364Z,101102.96
2018-07-25T16:59:12.573Z,101101.22
2018-07-25T17:01:40.808Z,101099.89
2018-07-25T17:04:09.059Z,101098.63
2018-07-25T17:06:37.293Z,101098.64
2018-07-25T17:09:08.078Z,101096.39
2018-07-25T17:11:37.462Z,101096.17
2018-07-25T17:14:05.843Z,101100.83
2018-07-25T17:16:34.079Z,101094.35
2018-07-25T17:19:02.339Z,101096.67
2018-07-25T17:21:30.563Z,101098.51
2018-07-25T17:23:58.825Z,101093.53
2018-07-25T17:26:27.110Z,101092.09
2018-07-25T17:28:55.326Z,101100.11
2018-07-25T17:31:23.560Z,101102.69
2018-07-25T17:33:51.867Z,101104.00
2018-07-25T17:36:20.105Z,101102.20
2018-07-25T17:38:48.325Z,101094.20
2018-07-25T17:41:16.614Z,101103.80
2018-07-25T17:43:44.900Z,101101.38
2018-07-25T17:46:13.136Z,101105.76
2018-07-25T17:48:42.124Z,101105.03
2018-07-25T17:51:10.332Z,101103.02
2018-07-25T17:53:38.658Z,101103.33
2018-07-25T17:56:06.948Z,101107.87
2018-07-25T17:58:35.169Z,101106.44
2018-07-25T18:01:03.513Z,101108.28
2018-07-25T18:03:31.858Z,101114.94
2018-07-25T18:06:00.045Z,101117.41
2018-07-25T18:08:28.273Z,101125.39
2018-07-25T18:10:57.223Z,101118.79
2018-07-25T18:13:30.791Z,101119.02
2018-07-25T18:15:59.284Z,101120.05
2018-07-25T18:18:27.586Z,101120.67
2018-07-25T18:20:55.773Z,101126.30
2018-07-25T18:23:24.028Z,101129.37
2018-07-25T18:25:52.292Z,101130.41
2018-07-25T18:28:20.513Z,101130.89
2018-07-25T18:30:48.790Z,101131.28
2018-07-25T18:33:17.023Z,101133.96
2018-07-25T18:35:45.277Z,101136.08
2018-07-25T18:38:13.553Z,101132.92
2018-07-25T18:40:41.786Z,101138.67
2018-07-25T18:43:10.006Z,101135.17
2018-07-25T18:45:38.387Z,101136.42
2018-07-25T18:48:06.671Z,101142.66
2018-07-25T18:50:35.231Z,101136.00
2018-07-25T18:53:03.771Z,101138.63
2018-07-25T18:55:32.010Z,101132.45
2018-07-25T18:58:01.062Z,101129.64
2018-07-25T19:00:29.342Z,101131.28
2018-07-25T19:02:57.565Z,101134.00
2018-07-25T19:05:31.420Z,101135.00
2018-07-25T19:08:01.099Z,101139.71
2018-07-25T19:10:29.847Z,101140.55
2018-07-25T19:12:58.186Z,101141.57
2018-07-25T19:15:29.037Z,101141.35
2018-07-25T19:17:57.268Z,101146.58
2018-07-25T19:20:26.015Z,101146.83
2018-07-25T19:22:54.229Z,101152.62
2018-07-25T19:25:22.772Z,101151.70
2018-07-25T19:27:51.499Z,101159.73
2018-07-25T19:30:19.794Z,101151.23
2018-07-25T19:32:48.230Z,101157.27
2018-07-25T19:35:16.459Z,101159.19
2018-07-25T19:37:44.661Z,101166.06
2018-07-25T19:40:12.849Z,101161.95
2018-07-25T19:42:41.114Z,101159.71
2018-07-25T19:45:09.337Z,101160.75
2018-07-25T19:47:37.539Z,101164.56
2018-07-25T19:50:07.782Z,101171.16
2018-07-25T19:52:36.050Z,101171.36
2018-07-25T19:55:04.383Z,101173.67
2018-07-25T19:57:32.722Z,101174.48
2018-07-25T20:00:01.603Z,101171.80
2018-07-25T20:02:31.620Z,101177.23
2018-07-25T20:04:59.934Z,101174.15
2018-07-25T20:07:28.287Z,101174.73
2018-07-25T20:09:56.617Z,101177.16
2018-07-25T20:12:25.013Z,101182.80
2018-07-25T20:14:58.661Z,101176.47
2018-07-25T20:17:28.574Z,101184.84
2018-07-25T20:19:57.617Z,101178.86
2018-07-25T20:22:25.851Z,101182.80
2018-07-25T20:24:54.924Z,101186.47
2018-07-25T20:27:23.134Z,101186.25
2018-07-25T20:29:51.442Z,101183.60
2018-07-25T20:32:19.817Z,101188.44
2018-07-25T20:34:49.321Z,101184.30
2018-07-25T20:37:18.034Z,101183.49
2018-07-25T20:39:47.472Z,101187.50
2018-07-25T20:42:15.732Z,101190.95
2018-07-25T20:44:43.944Z,101183.59
2018-07-25T20:47:15.959Z,101186.81
2018-07-25T20:49:45.394Z,101187.05
2018-07-25T20:52:14.308Z,101185.50
2018-07-25T20:54:42.531Z,101183.73
2018-07-25T20:57:10.882Z,101186.44
2018-07-25T20:59:39.099Z,101186.00
2018-07-25T21:02:07.889Z,101185.31
2018-07-25T21:04:36.133Z,101187.52
2018-07-25T21:07:04.376Z,101187.52
2018-07-25T21:09:32.653Z,101183.22
2018-07-25T21:12:00.893Z,101186.14
2018-07-25T21:14:29.117Z,101185.01
2018-07-25T21:16:57.420Z,101183.84
2018-07-25T21:19:25.689Z,101190.86
2018-07-25T21:21:54.023Z,101189.69
2018-07-25T21:24:22.253Z,101193.70
2018-07-25T21:26:50.609Z,101193.09
2018-07-25T21:29:18.876Z,101197.39
2018-07-25T21:31:47.267Z,101201.32
2018-07-25T21:34:15.634Z,101205.41
2018-07-25T21:36:43.887Z,101207.02
2018-07-25T21:39:13.266Z,101210.44
2018-07-25T21:41:41.839Z,101214.87
2018-07-25T21:44:10.033Z,101214.03
2018-07-25T21:46:38.265Z,101223.81
2018-07-25T21:49:06.915Z,101223.80
2018-07-25T21:51:35.188Z,101222.69
2018-07-25T21:54:03.573Z,101227.05
2018-07-25T21:56:31.864Z,101229.17
2018-07-25T21:59:00.080Z,101228.28
2018-07-25T22:01:28.487Z,101228.53
2018-07-25T22:03:56.712Z,101226.80
2018-07-25T22:06:24.956Z,101226.37
2018-07-25T22:08:53.229Z,101229.86
2018-07-25T22:11:21.392Z,101228.41
2018-07-25T22:13:56.599Z,101229.79
2018-07-25T22:16:26.014Z,101232.39
2018-07-25T22:18:54.280Z,101226.84
2018-07-25T22:21:22.566Z,101231.21
2018-07-25T22:23:51.025Z,101229.17
2018-07-25T22:26:19.525Z,101224.91
2018-07-25T22:28:47.820Z,101230.80
2018-07-25T22:31:16.071Z,101232.05
2018-07-25T22:33:44.358Z,101233.02
2018-07-25T22:36:12.586Z,101231.97
2018-07-25T22:38:40.784Z,101230.28
2018-07-25T22:41:09.021Z,101234.11
2018-07-25T22:43:37.295Z,101234.00
2018-07-25T22:46:05.564Z,101233.91
2018-07-25T22:48:33.800Z,101232.25
2018-07-25T22:51:03.363Z,101231.61
2018-07-25T22:53:31.596Z,101232.66
2018-07-25T22:55:59.821Z,101234.74
2018-07-25T22:58:28.052Z,101227.62
2018-07-25T23:00:56.528Z,101227.95
2018-07-25T23:03:24.733Z,101232.44
2018-07-25T23:05:53.005Z,101238.55
2018-07-25T23:08:21.201Z,101227.80
2018-07-25T23:10:49.493Z,101240.16
2018-07-25T23:13:17.748Z,101239.41
2018-07-25T23:15:45.979Z,101241.41
2018-07-25T23:18:14.208Z,101239.73
2018-07-25T23:20:42.463Z,101245.95
2018-07-25T23:23:10.653Z,101246.09
2018-07-25T23:25:38.850Z,101248.72
2018-07-25T23:28:07.158Z,101244.83
2018-07-25T23:30:35.482Z,101240.69
2018-07-25T23:33:03.685Z,101243.86
2018-07-25T23:35:31.968Z,101242.70
2018-07-25T23:38:00.182Z,101246.11
2018-07-25T23:40:28.392Z,101245.12
2018-07-25T23:42:56.650Z,101248.06
2018-07-25T23:45:26.368Z,101240.45
2018-07-25T23:47:55.035Z,101239.38
2018-07-25T23:50:23.345Z,101249.52
2018-07-25T23:52:51.542Z,101252.17
2018-07-25T23:55:19.752Z,101252.33
2018-07-25T23:57:48.002Z,101256.50
